Flight Track Log - Related Links

Times and Time Zones

All times are in EST time to prevent confusion due to time zone crossing. See the UAL4670 flight status page for this flight to view local times or setup timezone preferences in your user account.

Time Position Orientation Groundspeed Altitude Reporting Facility
EST Latitude Longitude Course Direction KTS MPH feet Rate Location/Type
Thu 01:31:06 PM 40.0036 -82.9156 348° North 152 175 1,600  Level Indianapolis Center
Thu 01:32:02 PM 40.0097 -82.9711 278° West 183 211 3,800 2,384 Climbing Indianapolis Center
Thu 01:32:19 PM 40.0194 -82.9919 301° West 194 223 4,500 2,129 Climbing Indianapolis Center
Thu 01:33:04 PM 40.0611 -82.9806 12° North 248 285 6,000 1,850 Climbing Indianapolis Center
Thu 01:34:00 PM 40.0564 -82.3800 21° North  Level Estimated
Thu 01:34:06 PM 40.1189 -82.9117 42° Northeast 282 325 7,800  Level Indianapolis Center
Thu 01:35:00 PM 40.0709 -82.2518 19° North  Level Estimated
Thu 01:35:08 PM 40.1844 -82.8431 39° Northeast 299 344 10,100  Level Indianapolis Center
Thu 01:36:00 PM 40.1680 -82.2782 348° North  Level FlightAware Approximate
Thu 01:36:10 PM 40.2617 -82.7606 39° Northeast 313 360 12,000  Level Indianapolis Center
Thu 01:37:12 PM 40.3356 -82.6814 39° Northeast 335 386 13,500 1,500 Climbing Indianapolis Center
Thu 01:38:14 PM 40.4128 -82.5967 40° Northeast 353 406 15,100 1,597 Climbing Indianapolis Center
Thu 01:39:16 PM 40.5203 -82.5436 21° North 351 404 16,800 1,355 Climbing Indianapolis Center
Thu 01:40:18 PM 40.6169 -82.4997 19° North 360 414 17,900 1,306 Climbing Indianapolis Center
Thu 01:41:20 PM 40.7153 -82.4561 19° North 367 422 19,500 1,355 Climbing Indianapolis Center
Thu 01:42:22 PM 40.8153 -82.4094 19° North 374 430 20,700 1,113 Climbing Indianapolis Center
Thu 01:43:24 PM 40.9203 -82.3622 19° North 387 445 21,800 1,016 Climbing Indianapolis Center
Thu 01:44:26 PM 41.0297 -82.3117 19° North 406 467 22,800 1,016 Climbing Indianapolis Center
Thu 01:45:28 PM 41.1422 -82.2611 19° North 417 480 23,900 1,016 Climbing Indianapolis Center
Thu 01:46:30 PM 41.2433 -82.1758 32° Northeast 430 495 24,900 1,016 Climbing Indianapolis Center
Thu 01:47:32 PM 41.3006 -82.0286 63° Northeast 443 510 26,000 1,113 Climbing Indianapolis Center
Thu 01:48:34 PM 41.3631 -81.8528 65° Northeast 443 510 27,200 1,016 Climbing Indianapolis Center
Thu 01:49:36 PM 41.4089 -81.7236 65° Northeast 445 512 28,100 912 Climbing Indianapolis Center
Thu 01:50:39 PM 41.4617 -81.5703 65° Northeast 443 510 29,100 1,065 Climbing Indianapolis Center
Thu 01:51:40 PM 41.5225 -81.3944 65° Northeast 441 507 30,300 1,062 Climbing Indianapolis Center
Thu 01:52:49 PM 41.5753 -81.2442 65° Northeast 445 512 31,400 1,053 Climbing Cleveland Center
Thu 01:53:51 PM 41.6378 -81.0642 65° Northeast 453 521 32,600 1,065 Climbing Cleveland Center
Thu 01:54:53 PM 41.6917 -80.9092 65° Northeast 456 525 33,600 1,016 Climbing Cleveland Center
Thu 01:55:55 PM 41.7439 -80.7547 66° East 452 520 34,700 726 Climbing Cleveland Center
Thu 01:56:57 PM 41.7939 -80.5975 67° East 453 521 35,100 144 Climbing Cleveland Center
Thu 01:58:00 PM 41.7856 -80.4250 94° East 457 526 35,000 -48 Descending Cleveland Center
Thu 01:59:02 PM 41.7689 -80.2483 97° East 471 542 35,000  Level Cleveland Center
Thu 02:00:04 PM 41.7494 -80.0686 98° East 483 556 35,000  Level Cleveland Center
Thu 02:01:06 PM 41.7311 -79.8861 98° East 490 564 35,000  Level Cleveland Center
Thu 02:02:08 PM 41.7092 -79.6828 98° East 470 541 35,000  Level Cleveland Center
Thu 02:03:10 PM 41.6939 -79.5361 98° East 452 520 35,000  Level Cleveland Center
Thu 02:04:12 PM 41.6719 -79.3444 99° East 439 505 35,000  Level Cleveland Center
Thu 02:05:14 PM 41.6550 -79.1889 98° East 425 489 35,000  Level Cleveland Center
Thu 02:06:16 PM 41.6367 -79.0308 99° East 432 497 35,000  Level Cleveland Center
Thu 02:07:19 PM 41.6186 -78.8636 98° East 447 514 35,000 -528 Level Cleveland Center
Thu 02:08:21 PM 41.5983 -78.6936 99° East 460 529 33,900 -1,113 Descending Cleveland Center
Thu 02:09:23 PM 41.5789 -78.5228 99° East 464 534 32,700 -1,306 Descending Cleveland Center
Thu 02:10:25 PM 41.5539 -78.3156 99° East 468 539 31,200 -823 Descending Cleveland Center
Thu 02:11:27 PM 41.5333 -78.1444 99° East 468 539 31,000 -97 Descending Cleveland Center
Thu 02:12:29 PM 41.5125 -77.9750 99° East 464 534 31,000  Level Cleveland Center
Thu 02:13:31 PM 41.4897 -77.8078 100° East 461 531 31,000  Level Cleveland Center
Thu 02:14:33 PM 41.4656 -77.6394 101° East 461 531 31,000  Level Cleveland Center
Thu 02:15:35 PM 41.4406 -77.4664 101° East 469 540 31,000  Level Cleveland Center
Thu 02:16:37 PM 41.4100 -77.2567 101° East 480 552 31,000  Level Cleveland Center
Thu 02:17:39 PM 41.3847 -77.0831 101° East 481 554 31,000 -288 Level Cleveland Center
Thu 02:18:42 PM 41.3581 -76.9067 101° East 484 557 30,400 -1,333 Descending Cleveland Center
Thu 02:19:45 PM 41.3206 -76.7131 104° East 474 545 28,200 -2,508 Descending New York Center
Thu 02:20:44 PM 41.2800 -76.5633 110° East 479 551 25,300 -2,723 Descending New York Center
Thu 02:21:44 PM 41.2358 -76.3994 110° East 479 551 22,800 -2,350 Descending New York Center
Thu 02:22:44 PM 41.1894 -76.2356 111° Southeast 479 551 20,600 -2,350 Descending New York Center
Thu 02:23:44 PM 41.1508 -76.0753 108° East 468 539 18,100 -2,000 Descending New York Center
Thu 02:24:44 PM 41.1097 -75.9233 110° East 450 518 16,600 -1,900 Descending New York Center
Thu 02:25:44 PM 41.0644 -75.7658 111° Southeast 430 495 14,300 -1,800 Descending New York Center
Thu 02:26:44 PM 41.0267 -75.6228 109° East 419 482 13,000 -645 Descending New York Center
Thu 02:27:45 PM 40.9864 -75.4853 111° Southeast 414 476 13,000 -1,150 Level New York Center
Thu 02:28:44 PM 40.9514 -75.3647 111° Southeast 374 430 10,700 -1,815 Descending New York Center
Thu 02:29:44 PM 40.9225 -75.2500 108° East 342 394 9,400 -1,550 Descending New York Center
Thu 02:30:44 PM 40.8925 -75.1575 113° Southeast 308 354 7,600 -1,250 Descending New York Center
Thu 02:31:44 PM 40.8631 -75.0514 110° East 308 354 6,900 -300 Descending New York Center
Thu 02:32:44 PM 40.8078 -74.9711 132° Southeast 278 320 7,000 100 Climbing New York Center
Thu 02:33:44 PM 40.7583 -74.8969 131° Southeast 273 314 7,100  Climbing New York Center
Thu 02:34:44 PM 40.7067 -74.8225 132° Southeast 273 314 7,000 -50 Descending New York Center
Thu 02:35:44 PM 40.6631 -74.7569 131° Southeast 273 314 7,000 -150 Level New York Center
Thu 02:36:44 PM 40.6347 -74.6678 113° Southeast 262 302 6,700 -496 Descending New York Center
Thu 02:37:45 PM 40.6858 -74.6325 28° Northeast 205 236 6,000 -447 Descending New York Center
Thu 02:38:18 PM 40.7167 -74.6167 21° North 235 270 6,000  Level New York TRACON
Thu 02:39:18 PM 40.7833 -74.5667 30° Northeast 229 264 6,000 -381 Level New York TRACON
Thu 02:40:24 PM 40.8500 -74.5333 21° North 230 265 5,200 -476 Descending New York TRACON
Thu 02:41:24 PM 40.8833 -74.4833 49° Northeast 200 230 5,000 -100 Descending New York TRACON
Thu 02:42:24 PM 40.9333 -74.4500 27° Northeast 193 222 5,000  Level New York TRACON
Thu 02:43:24 PM 40.9667 -74.3833 56° Northeast 210 242 5,000 -250 Level New York TRACON
Thu 02:44:24 PM 40.9833 -74.3167 72° East 217 250 4,500 -500 Descending New York TRACON
Thu 02:45:24 PM 41.0000 -74.2333 75° East 215 247 4,000 -250 Descending New York TRACON
Thu 02:46:24 PM 41.0000 -74.1500 90° East 229 264 4,000 -350 Level New York TRACON
Thu 02:47:24 PM 40.9667 -74.0833 123° Southeast 229 264 3,300 -500 Descending New York TRACON
Thu 02:48:24 PM 40.9167 -74.0500 153° Southeast 191 220 3,000 -150 Descending New York TRACON
Thu 02:49:24 PM 40.8667 -74.0500 180° South 178 205 3,000 -48 Level New York TRACON
Thu 02:50:30 PM 40.8333 -74.0833 217° Southwest 171 197 2,900 -476 Descending New York TRACON
Thu 02:51:30 PM 40.7833 -74.1000 194° South 167 192 2,000 -850 Descending New York TRACON
Thu 02:52:30 PM 40.7500 -74.1333 217° Southwest 140 161 1,200 -800 Descending New York TRACON
Thu 02:53:30 PM 40.7167 -74.1500 201° Southwest 126 145 400 -800 Descending New York TRACON

Login

Don't have an account? Register now (free) for customized features, flight alerts, and more!